sensor_id;sensor_type;location;lat;lon;timestamp;temperature;humidity
8372;DHT22;4223;48.724;8.982;2022-09-09T00:01:59;13.70;1.00
8372;DHT22;4223;48.724;8.982;2022-09-09T00:04:28;13.70;1.00
8372;DHT22;4223;48.724;8.982;2022-09-09T00:07:03;13.80;1.00
8372;DHT22;4223;48.724;8.982;2022-09-09T00:09:35;13.70;1.00
8372;DHT22;4223;48.724;8.982;2022-09-09T00:12:11;13.80;1.00
8372;DHT22;4223;48.724;8.982;2022-09-09T00:14:46;13.70;1.00
8372;DHT22;4223;48.724;8.982;2022-09-09T00:17:22;13.80;1.00
8372;DHT22;4223;48.724;8.982;2022-09-09T00:19:58;13.90;1.00
8372;DHT22;4223;48.724;8.982;2022-09-09T00:22:29;13.90;1.00
8372;DHT22;4223;48.724;8.982;2022-09-09T00:25:05;13.90;1.00
8372;DHT22;4223;48.724;8.982;2022-09-09T00:27:40;14.00;1.00
8372;DHT22;4223;48.724;8.982;2022-09-09T00:30:16;14.00;1.00
8372;DHT22;4223;48.724;8.982;2022-09-09T00:32:46;14.00;1.00
8372;DHT22;4223;48.724;8.982;2022-09-09T00:35:18;14.00;1.00
8372;DHT22;4223;48.724;8.982;2022-09-09T00:37:48;14.10;1.00
8372;DHT22;4223;48.724;8.982;2022-09-09T00:40:23;14.10;1.00
8372;DHT22;4223;48.724;8.982;2022-09-09T00:42:59;14.10;1.00
8372;DHT22;4223;48.724;8.982;2022-09-09T00:45:51;14.10;1.00
8372;DHT22;4223;48.724;8.982;2022-09-09T00:48:20;14.10;1.00
8372;DHT22;4223;48.724;8.982;2022-09-09T00:50:53;14.20;1.00
8372;DHT22;4223;48.724;8.982;2022-09-09T00:53:33;14.20;1.00
8372;DHT22;4223;48.724;8.982;2022-09-09T00:56:11;14.20;1.00
8372;DHT22;4223;48.724;8.982;2022-09-09T00:58:40;14.20;1.00
8372;DHT22;4223;48.724;8.982;2022-09-09T01:01:11;14.20;1.00
8372;DHT22;4223;48.724;8.982;2022-09-09T01:03:44;14.20;1.00
8372;DHT22;4223;48.724;8.982;2022-09-09T01:06:16;14.30;1.00
8372;DHT22;4223;48.724;8.982;2022-09-09T01:09:04;14.30;1.00
8372;DHT22;4223;48.724;8.982;2022-09-09T01:11:39;14.30;1.00
8372;DHT22;4223;48.724;8.982;2022-09-09T01:14:16;14.30;1.00
8372;DHT22;4223;48.724;8.982;2022-09-09T01:16:47;14.30;1.00
8372;DHT22;4223;48.724;8.982;2022-09-09T01:19:20;14.30;1.00
8372;DHT22;4223;48.724;8.982;2022-09-09T01:21:54;14.30;1.00
8372;DHT22;4223;48.724;8.982;2022-09-09T01:24:27;14.40;1.00
8372;DHT22;4223;48.724;8.982;2022-09-09T01:26:58;14.40;1.00
8372;DHT22;4223;48.724;8.982;2022-09-09T01:29:26;14.30;1.00
8372;DHT22;4223;48.724;8.982;2022-09-09T01:31:55;14.30;1.00
8372;DHT22;4223;48.724;8.982;2022-09-09T01:34:24;14.20;1.00
8372;DHT22;4223;48.724;8.982;2022-09-09T01:36:55;14.20;1.00
8372;DHT22;4223;48.724;8.982;2022-09-09T01:39:24;14.20;1.00
8372;DHT22;4223;48.724;8.982;2022-09-09T01:41:51;14.20;1.00
8372;DHT22;4223;48.724;8.982;2022-09-09T01:44:20;14.10;1.00
8372;DHT22;4223;48.724;8.982;2022-09-09T01:46:47;14.10;1.00
8372;DHT22;4223;48.724;8.982;2022-09-09T01:49:14;14.00;1.00
8372;DHT22;4223;48.724;8.982;2022-09-09T01:51:41;14.00;1.00
8372;DHT22;4223;48.724;8.982;2022-09-09T01:54:10;13.90;1.00
8372;DHT22;4223;48.724;8.982;2022-09-09T01:56:43;13.80;1.10
8372;DHT22;4223;48.724;8.982;2022-09-09T01:59:26;13.70;7.10
8372;DHT22;4223;48.724;8.982;2022-09-09T02:02:04;13.70;1.00
8372;DHT22;4223;48.724;8.982;2022-09-09T02:04:38;13.70;1.00
8372;DHT22;4223;48.724;8.982;2022-09-09T02:07:13;13.70;1.00
8372;DHT22;4223;48.724;8.982;2022-09-09T02:09:44;13.60;1.00
8372;DHT22;4223;48.724;8.982;2022-09-09T02:12:16;13.50;13.30
8372;DHT22;4223;48.724;8.982;2022-09-09T02:14:50;13.40;18.70
8372;DHT22;4223;48.724;8.982;2022-09-09T02:17:25;13.40;35.70
8372;DHT22;4223;48.724;8.982;2022-09-09T02:19:56;13.40;33.20
8372;DHT22;4223;48.724;8.982;2022-09-09T02:22:26;13.30;33.20
8372;DHT22;4223;48.724;8.982;2022-09-09T02:24:56;13.30;29.50
8372;DHT22;4223;48.724;8.982;2022-09-09T02:27:24;13.30;25.50
8372;DHT22;4223;48.724;8.982;2022-09-09T02:29:54;13.20;21.20
8372;DHT22;4223;48.724;8.982;2022-09-09T02:32:24;13.20;28.30
8372;DHT22;4223;48.724;8.982;2022-09-09T02:34:54;13.10;31.90
8372;DHT22;4223;48.724;8.982;2022-09-09T02:37:25;13.10;34.40
8372;DHT22;4223;48.724;8.982;2022-09-09T02:39:54;13.00;36.30
8372;DHT22;4223;48.724;8.982;2022-09-09T02:42:21;13.10;35.70
8372;DHT22;4223;48.724;8.982;2022-09-09T02:44:49;13.00;30.20
8372;DHT22;4223;48.724;8.982;2022-09-09T02:47:30;13.00;41.00
8372;DHT22;4223;48.724;8.982;2022-09-09T02:50:11;13.00;42.10
8372;DHT22;4223;48.724;8.982;2022-09-09T02:52:46;12.90;54.00
8372;DHT22;4223;48.724;8.982;2022-09-09T02:55:18;13.00;50.60
8372;DHT22;4223;48.724;8.982;2022-09-09T02:57:47;13.00;38.40
8372;DHT22;4223;48.724;8.982;2022-09-09T03:00:15;13.00;37.10
8372;DHT22;4223;48.724;8.982;2022-09-09T03:02:43;13.00;34.10
8372;DHT22;4223;48.724;8.982;2022-09-09T03:05:10;13.10;35.70
8372;DHT22;4223;48.724;8.982;2022-09-09T03:07:38;13.10;28.30
8372;DHT22;4223;48.724;8.982;2022-09-09T03:10:06;13.10;20.40
8372;DHT22;4223;48.724;8.982;2022-09-09T03:12:34;13.20;17.40
8372;DHT22;4223;48.724;8.982;2022-09-09T03:15:01;13.20;21.40
8372;DHT22;4223;48.724;8.982;2022-09-09T03:17:27;13.20;15.40
8372;DHT22;4223;48.724;8.982;2022-09-09T03:19:56;13.10;21.50
8372;DHT22;4223;48.724;8.982;2022-09-09T03:22:23;13.20;19.60
8372;DHT22;4223;48.724;8.982;2022-09-09T03:24:50;13.10;20.60
8372;DHT22;4223;48.724;8.982;2022-09-09T03:27:17;13.20;25.40
8372;DHT22;4223;48.724;8.982;2022-09-09T03:29:44;13.20;16.10
8372;DHT22;4223;48.724;8.982;2022-09-09T03:32:11;13.20;13.20
8372;DHT22;4223;48.724;8.982;2022-09-09T03:34:38;13.30;8.30
8372;DHT22;4223;48.724;8.982;2022-09-09T03:37:07;13.30;4.30
8372;DHT22;4223;48.724;8.982;2022-09-09T03:39:34;13.20;10.90
8372;DHT22;4223;48.724;8.982;2022-09-09T03:42:01;13.20;8.00
8372;DHT22;4223;48.724;8.982;2022-09-09T03:44:29;13.10;18.30
8372;DHT22;4223;48.724;8.982;2022-09-09T03:46:56;13.00;18.70
8372;DHT22;4223;48.724;8.982;2022-09-09T03:49:26;13.00;21.10
8372;DHT22;4223;48.724;8.982;2022-09-09T03:51:54;13.00;20.80
8372;DHT22;4223;48.724;8.982;2022-09-09T03:54:23;12.90;29.20
8372;DHT22;4223;48.724;8.982;2022-09-09T03:56:50;12.90;32.10
8372;DHT22;4223;48.724;8.982;2022-09-09T03:59:17;12.90;30.10
8372;DHT22;4223;48.724;8.982;2022-09-09T04:01:44;12.80;31.50
8372;DHT22;4223;48.724;8.982;2022-09-09T04:04:13;12.80;38.10
8372;DHT22;4223;48.724;8.982;2022-09-09T04:06:39;12.90;35.80
8372;DHT22;4223;48.724;8.982;2022-09-09T04:09:06;12.90;39.40
8372;DHT22;4223;48.724;8.982;2022-09-09T04:11:34;12.90;37.80
8372;DHT22;4223;48.724;8.982;2022-09-09T04:14:02;13.00;29.50
8372;DHT22;4223;48.724;8.982;2022-09-09T04:16:29;13.10;31.10
8372;DHT22;4223;48.724;8.982;2022-09-09T04:18:56;13.10;25.30
8372;DHT22;4223;48.724;8.982;2022-09-09T04:21:23;13.00;26.10
8372;DHT22;4223;48.724;8.982;2022-09-09T04:23:50;13.00;28.70
8372;DHT22;4223;48.724;8.982;2022-09-09T04:26:18;13.10;26.80
8372;DHT22;4223;48.724;8.982;2022-09-09T04:28:47;13.10;27.50
8372;DHT22;4223;48.724;8.982;2022-09-09T04:31:16;13.10;32.20
8372;DHT22;4223;48.724;8.982;2022-09-09T04:33:44;13.10;26.80
8372;DHT22;4223;48.724;8.982;2022-09-09T04:36:12;13.20;23.00
8372;DHT22;4223;48.724;8.982;2022-09-09T04:38:39;13.10;27.40
8372;DHT22;4223;48.724;8.982;2022-09-09T04:41:06;13.10;38.70
8372;DHT22;4223;48.724;8.982;2022-09-09T04:43:33;13.10;29.40
8372;DHT22;4223;48.724;8.982;2022-09-09T04:46:02;13.10;31.40
8372;DHT22;4223;48.724;8.982;2022-09-09T04:48:28;13.00;40.50
8372;DHT22;4223;48.724;8.982;2022-09-09T04:50:57;13.00;46.30
8372;DHT22;4223;48.724;8.982;2022-09-09T04:53:24;13.00;46.30
8372;DHT22;4223;48.724;8.982;2022-09-09T04:55:52;13.00;47.80
8372;DHT22;4223;48.724;8.982;2022-09-09T04:58:19;13.00;44.10
8372;DHT22;4223;48.724;8.982;2022-09-09T05:00:47;13.00;52.60
8372;DHT22;4223;48.724;8.982;2022-09-09T05:03:15;13.00;49.10
8372;DHT22;4223;48.724;8.982;2022-09-09T05:05:42;13.10;49.50
8372;DHT22;4223;48.724;8.982;2022-09-09T05:08:10;13.10;47.40
8372;DHT22;4223;48.724;8.982;2022-09-09T05:10:38;13.10;48.30
8372;DHT22;4223;48.724;8.982;2022-09-09T05:13:07;13.10;45.90
8372;DHT22;4223;48.724;8.982;2022-09-09T05:15:34;13.10;43.60
8372;DHT22;4223;48.724;8.982;2022-09-09T05:18:02;13.20;45.00
8372;DHT22;4223;48.724;8.982;2022-09-09T05:20:30;13.20;40.70
8372;DHT22;4223;48.724;8.982;2022-09-09T05:22:57;13.20;37.00
8372;DHT22;4223;48.724;8.982;2022-09-09T05:25:24;13.30;45.80
8372;DHT22;4223;48.724;8.982;2022-09-09T05:27:52;13.30;39.20
8372;DHT22;4223;48.724;8.982;2022-09-09T05:30:20;13.30;34.90
8372;DHT22;4223;48.724;8.982;2022-09-09T05:32:48;13.40;31.90
8372;DHT22;4223;48.724;8.982;2022-09-09T05:35:15;13.40;28.10
8372;DHT22;4223;48.724;8.982;2022-09-09T05:37:46;13.40;32.00
8372;DHT22;4223;48.724;8.982;2022-09-09T05:40:13;13.50;23.70
8372;DHT22;4223;48.724;8.982;2022-09-09T05:42:40;13.50;21.50
8372;DHT22;4223;48.724;8.982;2022-09-09T05:45:08;13.60;18.70
8372;DHT22;4223;48.724;8.982;2022-09-09T05:47:35;13.60;22.50
8372;DHT22;4223;48.724;8.982;2022-09-09T05:50:02;13.60;20.30
8372;DHT22;4223;48.724;8.982;2022-09-09T05:52:29;13.70;24.50
8372;DHT22;4223;48.724;8.982;2022-09-09T05:54:58;13.70;20.60
8372;DHT22;4223;48.724;8.982;2022-09-09T05:57:25;13.70;25.00
8372;DHT22;4223;48.724;8.982;2022-09-09T05:59:52;13.80;19.80
8372;DHT22;4223;48.724;8.982;2022-09-09T06:02:19;13.90;13.00
8372;DHT22;4223;48.724;8.982;2022-09-09T06:04:45;13.90;9.50
8372;DHT22;4223;48.724;8.982;2022-09-09T06:07:12;13.90;18.90
8372;DHT22;4223;48.724;8.982;2022-09-09T06:09:40;14.00;8.50
8372;DHT22;4223;48.724;8.982;2022-09-09T06:12:08;14.00;14.50
8372;DHT22;4223;48.724;8.982;2022-09-09T06:14:35;14.10;8.70
8372;DHT22;4223;48.724;8.982;2022-09-09T06:17:02;14.20;1.00
8372;DHT22;4223;48.724;8.982;2022-09-09T06:19:29;14.20;1.00
8372;DHT22;4223;48.724;8.982;2022-09-09T06:21:56;14.20;1.10
8372;DHT22;4223;48.724;8.982;2022-09-09T06:24:22;14.20;12.20
8372;DHT22;4223;48.724;8.982;2022-09-09T06:26:49;14.30;1.00
8372;DHT22;4223;48.724;8.982;2022-09-09T06:29:17;14.40;1.00
8372;DHT22;4223;48.724;8.982;2022-09-09T06:31:44;14.40;1.00
8372;DHT22;4223;48.724;8.982;2022-09-09T06:34:11;14.50;1.00
8372;DHT22;4223;48.724;8.982;2022-09-09T06:36:38;14.50;3.10
8372;DHT22;4223;48.724;8.982;2022-09-09T06:39:06;14.60;1.00
8372;DHT22;4223;48.724;8.982;2022-09-09T06:41:34;14.50;1.60
8372;DHT22;4223;48.724;8.982;2022-09-09T06:44:02;14.60;1.00
8372;DHT22;4223;48.724;8.982;2022-09-09T06:46:31;14.70;1.00
8372;DHT22;4223;48.724;8.982;2022-09-09T06:48:59;14.70;1.00
8372;DHT22;4223;48.724;8.982;2022-09-09T06:51:29;14.80;1.40
8372;DHT22;4223;48.724;8.982;2022-09-09T06:53:58;14.90;1.00
8372;DHT22;4223;48.724;8.982;2022-09-09T06:56:26;15.00;1.00
8372;DHT22;4223;48.724;8.982;2022-09-09T06:58:55;15.10;1.00
8372;DHT22;4223;48.724;8.982;2022-09-09T07:01:23;15.20;1.00
8372;DHT22;4223;48.724;8.982;2022-09-09T07:03:53;15.20;1.00
8372;DHT22;4223;48.724;8.982;2022-09-09T07:06:21;15.30;1.00
8372;DHT22;4223;48.724;8.982;2022-09-09T07:08:49;15.40;1.00
8372;DHT22;4223;48.724;8.982;2022-09-09T07:11:17;15.60;1.00
8372;DHT22;4223;48.724;8.982;2022-09-09T07:13:44;15.70;1.00
8372;DHT22;4223;48.724;8.982;2022-09-09T07:16:13;15.90;1.00
8372;DHT22;4223;48.724;8.982;2022-09-09T07:18:40;16.10;1.00
8372;DHT22;4223;48.724;8.982;2022-09-09T07:21:09;16.50;1.00
8372;DHT22;4223;48.724;8.982;2022-09-09T07:23:37;17.20;99.90
8372;DHT22;4223;48.724;8.982;2022-09-09T07:26:08;17.60;99.90
8372;DHT22;4223;48.724;8.982;2022-09-09T07:28:35;17.90;1.00
8372;DHT22;4223;48.724;8.982;2022-09-09T07:31:02;17.80;1.00
8372;DHT22;4223;48.724;8.982;2022-09-09T07:33:30;17.90;1.00
8372;DHT22;4223;48.724;8.982;2022-09-09T07:36:03;18.00;1.00
8372;DHT22;4223;48.724;8.982;2022-09-09T07:38:32;18.90;99.90
8372;DHT22;4223;48.724;8.982;2022-09-09T07:41:04;19.60;99.90
8372;DHT22;4223;48.724;8.982;2022-09-09T07:43:31;20.40;99.90
8372;DHT22;4223;48.724;8.982;2022-09-09T07:45:59;20.90;99.90
8372;DHT22;4223;48.724;8.982;2022-09-09T07:48:27;22.10;1.00
8372;DHT22;4223;48.724;8.982;2022-09-09T07:51:04;23.10;1.00
8372;DHT22;4223;48.724;8.982;2022-09-09T07:53:33;24.10;1.00
8372;DHT22;4223;48.724;8.982;2022-09-09T07:56:04;23.80;99.90
8372;DHT22;4223;48.724;8.982;2022-09-09T07:58:31;23.60;99.90
8372;DHT22;4223;48.724;8.982;2022-09-09T08:00:58;24.50;99.90
8372;DHT22;4223;48.724;8.982;2022-09-09T08:03:25;23.80;99.90
8372;DHT22;4223;48.724;8.982;2022-09-09T08:05:52;24.50;99.90
8372;DHT22;4223;48.724;8.982;2022-09-09T08:08:19;24.60;99.90
8372;DHT22;4223;48.724;8.982;2022-09-09T08:10:47;25.60;99.90
8372;DHT22;4223;48.724;8.982;2022-09-09T08:13:14;25.90;99.90
8372;DHT22;4223;48.724;8.982;2022-09-09T08:15:41;24.70;99.90
8372;DHT22;4223;48.724;8.982;2022-09-09T08:18:08;24.40;99.90
8372;DHT22;4223;48.724;8.982;2022-09-09T08:20:36;23.30;99.90
8372;DHT22;4223;48.724;8.982;2022-09-09T08:23:03;24.80;99.90
8372;DHT22;4223;48.724;8.982;2022-09-09T08:25:30;23.20;99.90
8372;DHT22;4223;48.724;8.982;2022-09-09T08:27:58;22.90;99.90
8372;DHT22;4223;48.724;8.982;2022-09-09T08:30:25;22.50;99.90
8372;DHT22;4223;48.724;8.982;2022-09-09T08:32:52;23.30;99.90
8372;DHT22;4223;48.724;8.982;2022-09-09T08:35:19;23.60;99.90
8372;DHT22;4223;48.724;8.982;2022-09-09T08:37:46;24.50;99.90
8372;DHT22;4223;48.724;8.982;2022-09-09T08:40:20;23.70;99.90
8372;DHT22;4223;48.724;8.982;2022-09-09T08:42:52;23.70;99.90
8372;DHT22;4223;48.724;8.982;2022-09-09T08:45:26;23.70;99.90
8372;DHT22;4223;48.724;8.982;2022-09-09T08:48:02;24.80;99.90
8372;DHT22;4223;48.724;8.982;2022-09-09T08:50:35;24.00;99.90
8372;DHT22;4223;48.724;8.982;2022-09-09T08:53:08;22.40;99.90
8372;DHT22;4223;48.724;8.982;2022-09-09T08:55:41;21.10;99.90
8372;DHT22;4223;48.724;8.982;2022-09-09T08:58:14;20.60;99.90
8372;DHT22;4223;48.724;8.982;2022-09-09T09:01:09;19.70;1.00
8372;DHT22;4223;48.724;8.982;2022-09-09T09:03:43;19.40;99.90
8372;DHT22;4223;48.724;8.982;2022-09-09T09:06:26;19.00;1.00
8372;DHT22;4223;48.724;8.982;2022-09-09T09:08:59;18.40;99.90
8372;DHT22;4223;48.724;8.982;2022-09-09T09:11:34;17.90;66.90
8372;DHT22;4223;48.724;8.982;2022-09-09T09:14:04;17.30;99.90
8372;DHT22;4223;48.724;8.982;2022-09-09T09:16:41;17.10;99.90
8372;DHT22;4223;48.724;8.982;2022-09-09T09:19:13;17.00;99.90
8372;DHT22;4223;48.724;8.982;2022-09-09T09:21:43;17.10;99.90
8372;DHT22;4223;48.724;8.982;2022-09-09T09:24:16;18.40;99.90
8372;DHT22;4223;48.724;8.982;2022-09-09T09:26:46;20.30;1.00
8372;DHT22;4223;48.724;8.982;2022-09-09T09:29:14;21.80;99.90
8372;DHT22;4223;48.724;8.982;2022-09-09T09:31:45;23.20;99.90
8372;DHT22;4223;48.724;8.982;2022-09-09T09:34:14;24.20;99.90
8372;DHT22;4223;48.724;8.982;2022-09-09T09:36:44;24.80;99.90
8372;DHT22;4223;48.724;8.982;2022-09-09T09:39:23;25.20;99.90
8372;DHT22;4223;48.724;8.982;2022-09-09T09:41:51;25.60;99.90
8372;DHT22;4223;48.724;8.982;2022-09-09T09:44:26;25.90;99.90
8372;DHT22;4223;48.724;8.982;2022-09-09T09:47:06;26.00;99.90
8372;DHT22;4223;48.724;8.982;2022-09-09T09:49:33;25.50;99.90
8372;DHT22;4223;48.724;8.982;2022-09-09T09:52:00;25.60;99.90
8372;DHT22;4223;48.724;8.982;2022-09-09T09:54:28;25.80;99.90
8372;DHT22;4223;48.724;8.982;2022-09-09T09:56:56;26.10;99.90
8372;DHT22;4223;48.724;8.982;2022-09-09T09:59:35;26.00;99.90
8372;DHT22;4223;48.724;8.982;2022-09-09T10:02:20;25.60;99.90
8372;DHT22;4223;48.724;8.982;2022-09-09T10:05:00;25.80;99.90
8372;DHT22;4223;48.724;8.982;2022-09-09T10:07:27;25.40;99.90
8372;DHT22;4223;48.724;8.982;2022-09-09T10:09:56;25.70;99.90
8372;DHT22;4223;48.724;8.982;2022-09-09T10:12:34;24.90;99.90
8372;DHT22;4223;48.724;8.982;2022-09-09T10:15:14;25.00;99.90
8372;DHT22;4223;48.724;8.982;2022-09-09T10:17:52;25.30;99.90
8372;DHT22;4223;48.724;8.982;2022-09-09T10:20:31;25.40;99.90
8372;DHT22;4223;48.724;8.982;2022-09-09T10:23:10;25.60;99.90
8372;DHT22;4223;48.724;8.982;2022-09-09T10:25:53;24.60;99.90
8372;DHT22;4223;48.724;8.982;2022-09-09T10:28:40;25.20;99.90
8372;DHT22;4223;48.724;8.982;2022-09-09T10:31:18;24.90;99.90
8372;DHT22;4223;48.724;8.982;2022-09-09T10:33:51;25.00;99.90
8372;DHT22;4223;48.724;8.982;2022-09-09T10:36:25;25.20;99.90
8372;DHT22;4223;48.724;8.982;2022-09-09T10:38:56;25.10;99.90
8372;DHT22;4223;48.724;8.982;2022-09-09T10:41:38;25.70;99.90
8372;DHT22;4223;48.724;8.982;2022-09-09T10:44:22;25.00;99.90
8372;DHT22;4223;48.724;8.982;2022-09-09T10:47:02;24.30;99.90
8372;DHT22;4223;48.724;8.982;2022-09-09T10:49:57;23.30;99.90
8372;DHT22;4223;48.724;8.982;2022-09-09T10:52:31;22.90;99.90
8372;DHT22;4223;48.724;8.982;2022-09-09T10:55:02;22.70;99.90
8372;DHT22;4223;48.724;8.982;2022-09-09T10:57:35;22.50;99.90
8372;DHT22;4223;48.724;8.982;2022-09-09T11:00:06;22.20;99.90
8372;DHT22;4223;48.724;8.982;2022-09-09T11:02:34;21.90;99.90
8372;DHT22;4223;48.724;8.982;2022-09-09T11:05:08;21.60;99.90
8372;DHT22;4223;48.724;8.982;2022-09-09T11:07:40;21.40;99.90
8372;DHT22;4223;48.724;8.982;2022-09-09T11:10:17;20.80;99.90
8372;DHT22;4223;48.724;8.982;2022-09-09T11:12:48;20.50;99.90
8372;DHT22;4223;48.724;8.982;2022-09-09T11:15:19;20.20;99.90
8372;DHT22;4223;48.724;8.982;2022-09-09T11:17:50;19.70;99.90
8372;DHT22;4223;48.724;8.982;2022-09-09T11:20:21;19.30;99.90
8372;DHT22;4223;48.724;8.982;2022-09-09T11:22:53;18.80;99.90
8372;DHT22;4223;48.724;8.982;2022-09-09T11:25:25;18.30;94.00
8372;DHT22;4223;48.724;8.982;2022-09-09T11:28:06;17.90;1.00
8372;DHT22;4223;48.724;8.982;2022-09-09T11:30:46;17.60;99.90
8372;DHT22;4223;48.724;8.982;2022-09-09T11:33:54;17.60;99.90
8372;DHT22;4223;48.724;8.982;2022-09-09T11:36:43;17.50;99.90
8372;DHT22;4223;48.724;8.982;2022-09-09T11:39:44;17.40;1.00
8372;DHT22;4223;48.724;8.982;2022-09-09T11:42:18;17.40;99.90
8372;DHT22;4223;48.724;8.982;2022-09-09T11:44:45;17.30;1.00
8372;DHT22;4223;48.724;8.982;2022-09-09T11:47:20;17.40;1.00
8372;DHT22;4223;48.724;8.982;2022-09-09T11:49:50;17.50;1.00
8372;DHT22;4223;48.724;8.982;2022-09-09T11:52:23;17.50;99.90
8372;DHT22;4223;48.724;8.982;2022-09-09T11:54:55;17.80;1.00
8372;DHT22;4223;48.724;8.982;2022-09-09T11:57:27;18.00;1.00
8372;DHT22;4223;48.724;8.982;2022-09-09T11:59:57;18.70;1.00
8372;DHT22;4223;48.724;8.982;2022-09-09T12:02:26;19.80;1.00
8372;DHT22;4223;48.724;8.982;2022-09-09T12:05:00;20.00;52.70
8372;DHT22;4223;48.724;8.982;2022-09-09T12:07:35;19.90;99.90
8372;DHT22;4223;48.724;8.982;2022-09-09T12:10:17;19.30;1.00
8372;DHT22;4223;48.724;8.982;2022-09-09T12:12:45;19.20;1.00
8372;DHT22;4223;48.724;8.982;2022-09-09T12:15:26;19.20;1.00
8372;DHT22;4223;48.724;8.982;2022-09-09T12:17:56;19.60;1.00
8372;DHT22;4223;48.724;8.982;2022-09-09T12:20:26;20.30;1.00
8372;DHT22;4223;48.724;8.982;2022-09-09T12:23:16;21.00;1.00
8372;DHT22;4223;48.724;8.982;2022-09-09T12:26:05;21.30;1.00
8372;DHT22;4223;48.724;8.982;2022-09-09T12:28:44;20.90;99.90
8372;DHT22;4223;48.724;8.982;2022-09-09T12:31:17;21.00;99.90
8372;DHT22;4223;48.724;8.982;2022-09-09T12:33:47;20.60;99.90
8372;DHT22;4223;48.724;8.982;2022-09-09T12:36:16;20.60;99.90
8372;DHT22;4223;48.724;8.982;2022-09-09T12:38:46;20.90;99.90
8372;DHT22;4223;48.724;8.982;2022-09-09T12:41:20;21.20;99.90
8372;DHT22;4223;48.724;8.982;2022-09-09T12:43:47;21.00;99.90
8372;DHT22;4223;48.724;8.982;2022-09-09T12:46:23;21.30;99.90
8372;DHT22;4223;48.724;8.982;2022-09-09T12:48:53;21.40;99.90
8372;DHT22;4223;48.724;8.982;2022-09-09T12:51:24;21.10;99.90
8372;DHT22;4223;48.724;8.982;2022-09-09T12:53:54;21.00;99.90
8372;DHT22;4223;48.724;8.982;2022-09-09T12:56:23;21.00;99.90
8372;DHT22;4223;48.724;8.982;2022-09-09T12:58:54;20.70;99.90
8372;DHT22;4223;48.724;8.982;2022-09-09T13:01:24;20.50;99.90
8372;DHT22;4223;48.724;8.982;2022-09-09T13:03:52;20.60;99.90
8372;DHT22;4223;48.724;8.982;2022-09-09T13:06:21;20.90;99.90
8372;DHT22;4223;48.724;8.982;2022-09-09T13:08:49;20.80;99.90
8372;DHT22;4223;48.724;8.982;2022-09-09T13:11:20;20.90;99.90
8372;DHT22;4223;48.724;8.982;2022-09-09T13:13:53;21.30;99.90
8372;DHT22;4223;48.724;8.982;2022-09-09T13:16:22;21.30;99.90
8372;DHT22;4223;48.724;8.982;2022-09-09T13:18:52;21.70;99.90
8372;DHT22;4223;48.724;8.982;2022-09-09T13:21:19;22.30;99.90
8372;DHT22;4223;48.724;8.982;2022-09-09T13:23:49;22.60;99.90
8372;DHT22;4223;48.724;8.982;2022-09-09T13:26:24;22.70;99.90
8372;DHT22;4223;48.724;8.982;2022-09-09T13:28:52;22.20;99.90
8372;DHT22;4223;48.724;8.982;2022-09-09T13:31:22;21.60;99.90
8372;DHT22;4223;48.724;8.982;2022-09-09T13:33:49;21.30;99.90
8372;DHT22;4223;48.724;8.982;2022-09-09T13:36:28;20.90;99.90
8372;DHT22;4223;48.724;8.982;2022-09-09T13:38:57;20.70;99.90
8372;DHT22;4223;48.724;8.982;2022-09-09T13:41:29;20.60;99.90
8372;DHT22;4223;48.724;8.982;2022-09-09T13:43:57;21.20;99.90
8372;DHT22;4223;48.724;8.982;2022-09-09T13:46:34;21.40;99.90
8372;DHT22;4223;48.724;8.982;2022-09-09T13:49:16;21.50;99.90
8372;DHT22;4223;48.724;8.982;2022-09-09T13:51:46;21.40;99.90
8372;DHT22;4223;48.724;8.982;2022-09-09T13:54:16;21.60;99.90
8372;DHT22;4223;48.724;8.982;2022-09-09T13:56:45;21.70;99.90
8372;DHT22;4223;48.724;8.982;2022-09-09T13:59:14;22.00;99.90
8372;DHT22;4223;48.724;8.982;2022-09-09T14:01:41;22.20;99.90
8372;DHT22;4223;48.724;8.982;2022-09-09T14:04:08;22.80;99.90
8372;DHT22;4223;48.724;8.982;2022-09-09T14:06:36;23.10;99.90
8372;DHT22;4223;48.724;8.982;2022-09-09T14:09:04;23.40;99.90
8372;DHT22;4223;48.724;8.982;2022-09-09T14:11:31;23.50;99.90
8372;DHT22;4223;48.724;8.982;2022-09-09T14:13:59;23.20;99.90
8372;DHT22;4223;48.724;8.982;2022-09-09T14:16:27;23.00;99.90
8372;DHT22;4223;48.724;8.982;2022-09-09T14:18:54;23.20;99.90
8372;DHT22;4223;48.724;8.982;2022-09-09T14:21:22;23.60;99.90
8372;DHT22;4223;48.724;8.982;2022-09-09T14:23:49;23.40;99.90
8372;DHT22;4223;48.724;8.982;2022-09-09T14:26:16;23.40;99.90
8372;DHT22;4223;48.724;8.982;2022-09-09T14:28:47;23.40;99.90
8372;DHT22;4223;48.724;8.982;2022-09-09T14:31:15;23.30;99.90
8372;DHT22;4223;48.724;8.982;2022-09-09T14:33:43;23.30;99.90
8372;DHT22;4223;48.724;8.982;2022-09-09T14:36:10;23.40;99.90
8372;DHT22;4223;48.724;8.982;2022-09-09T14:38:38;23.00;99.90
8372;DHT22;4223;48.724;8.982;2022-09-09T14:41:06;23.50;99.90
8372;DHT22;4223;48.724;8.982;2022-09-09T14:43:33;23.30;99.90
8372;DHT22;4223;48.724;8.982;2022-09-09T14:46:05;22.80;99.90
8372;DHT22;4223;48.724;8.982;2022-09-09T14:48:33;22.40;99.90
8372;DHT22;4223;48.724;8.982;2022-09-09T14:51:05;22.30;99.90
8372;DHT22;4223;48.724;8.982;2022-09-09T14:53:32;22.50;99.90
8372;DHT22;4223;48.724;8.982;2022-09-09T14:56:04;22.50;99.90
8372;DHT22;4223;48.724;8.982;2022-09-09T14:58:31;22.50;99.90
8372;DHT22;4223;48.724;8.982;2022-09-09T15:01:03;21.80;99.90
8372;DHT22;4223;48.724;8.982;2022-09-09T15:03:30;21.40;99.90
8372;DHT22;4223;48.724;8.982;2022-09-09T15:06:04;21.20;99.90
8372;DHT22;4223;48.724;8.982;2022-09-09T15:08:30;21.00;99.90
8372;DHT22;4223;48.724;8.982;2022-09-09T15:10:59;21.00;99.90
8372;DHT22;4223;48.724;8.982;2022-09-09T15:13:26;21.10;99.90
8372;DHT22;4223;48.724;8.982;2022-09-09T15:15:53;21.60;99.90
8372;DHT22;4223;48.724;8.982;2022-09-09T15:18:20;21.80;99.90
8372;DHT22;4223;48.724;8.982;2022-09-09T15:20:47;21.60;99.90
8372;DHT22;4223;48.724;8.982;2022-09-09T15:23:15;21.70;99.90
8372;DHT22;4223;48.724;8.982;2022-09-09T15:25:51;21.80;99.90
8372;DHT22;4223;48.724;8.982;2022-09-09T15:28:18;21.80;99.90
8372;DHT22;4223;48.724;8.982;2022-09-09T15:30:47;21.60;99.90
8372;DHT22;4223;48.724;8.982;2022-09-09T15:33:14;21.40;99.90
8372;DHT22;4223;48.724;8.982;2022-09-09T15:35:41;20.90;99.90
8372;DHT22;4223;48.724;8.982;2022-09-09T15:38:08;20.70;99.90
8372;DHT22;4223;48.724;8.982;2022-09-09T15:40:36;20.40;99.90
8372;DHT22;4223;48.724;8.982;2022-09-09T15:43:03;20.10;99.90
8372;DHT22;4223;48.724;8.982;2022-09-09T15:45:31;20.00;99.90
8372;DHT22;4223;48.724;8.982;2022-09-09T15:47:59;19.80;99.90
8372;DHT22;4223;48.724;8.982;2022-09-09T15:50:26;19.70;99.90
8372;DHT22;4223;48.724;8.982;2022-09-09T15:52:52;19.70;99.90
8372;DHT22;4223;48.724;8.982;2022-09-09T15:55:20;19.70;99.90
8372;DHT22;4223;48.724;8.982;2022-09-09T15:57:48;19.60;99.90
8372;DHT22;4223;48.724;8.982;2022-09-09T16:00:15;19.60;99.90
8372;DHT22;4223;48.724;8.982;2022-09-09T16:02:42;19.50;99.90
8372;DHT22;4223;48.724;8.982;2022-09-09T16:05:09;19.50;99.90
8372;DHT22;4223;48.724;8.982;2022-09-09T16:07:36;19.50;99.90
8372;DHT22;4223;48.724;8.982;2022-09-09T16:10:03;19.40;99.90
8372;DHT22;4223;48.724;8.982;2022-09-09T16:12:31;19.30;99.90
8372;DHT22;4223;48.724;8.982;2022-09-09T16:14:59;19.30;99.90
8372;DHT22;4223;48.724;8.982;2022-09-09T16:17:26;19.20;99.90
8372;DHT22;4223;48.724;8.982;2022-09-09T16:19:53;19.10;99.90
8372;DHT22;4223;48.724;8.982;2022-09-09T16:22:20;19.10;99.90
8372;DHT22;4223;48.724;8.982;2022-09-09T16:24:47;19.00;99.90
8372;DHT22;4223;48.724;8.982;2022-09-09T16:27:14;18.80;99.90
8372;DHT22;4223;48.724;8.982;2022-09-09T16:29:41;18.50;99.90